Historyczne dane pomiarowe

Dodano dane terminowe – wersja testowa.

Dane z okresu 1951-2019

Wersja bazy: 1.34 [2019-03-16, lista zmian], aktualizacja planowana na 2019-04-15

Dane meteo z obszaru Polski uzyskane na podstawie danych udostępnionych przez Instytut Meteorologii i Gospodarki Wodnej – Państwowy Instytut Badawczy.

 

Wybierz Datę:    

       

TemperaturaWilgotnośćWiatrCiśnienieOpadyŚniegCzas trwania zjawisk
 Stacja t tx tn tng RH VA  wxwx mslp ppp RRR   cm mm wxwxwxwxwxwxwx
2019-06-19 21.3 28.0 10.9 8.3 54.0-- 2.0---- 0.0------------
2019-06-18 19.3 27.3 11.4 7.4 66.5-- 1.0---- 0.0------------
2019-06-17 19.9 24.9 16.8 14.7 74.8-- 2.0---- 0.0------------
2019-06-16 23.8 29.1 19.3 15.4 70.8-- 2.3---- 0.0------------
2019-06-15 23.6 30.7 15.0 11.8 64.0-- 2.7---- 0.0------------
2019-06-14 23.7 29.8 16.5 12.3 65.0-- 2.0---- 0.0------------
2019-06-13 25.5 32.3 16.1 12.3 51.8-- 2.0---- 0.0------------
2019-06-12 24.7 32.1 14.8 10.8 57.0-- 2.0---- 0.0------------
2019-06-11 24.7 31.2 15.6 11.8 59.0-- 2.0---- 0.0------------
2019-06-10 20.1 28.8 7.4 5.4 66.0-- 2.7---- 0.0------------
2019-06-09 19.9 25.1 15.9 14.7 61.0-- 1.7---- 0.0------------
2019-06-08 21.2 28.2 15.7 11.4 67.0-- 1.7---- 1.2------------
2019-06-07 20.3 26.6 13.4 10.6 74.0-- 2.7---- 0.2------------
2019-06-06 21.3 25.8 14.0 9.8 64.5-- 3.7---- 0.0------------
2019-06-05 21.4 27.1 12.3 9.3 66.8-- 2.3---- 0.0------------
2019-06-04 20.2 27.7 9.4 5.6 54.3-- 2.7---- 0.0------------
2019-06-03 18.1 25.1 8.1 5.3 55.3-- 1.7---- 0.0------------
2019-06-02 18.6 25.0 8.1 5.4 75.5-- 3.0---- 3.5------------
2019-06-01 16.9 22.4 8.4 6.9 68.8-- 2.7---- 0.0------------
2019-05-31 14.3 21.7 5.7 2.4 67.3-- 1.3---- 0.0------------
2019-05-30 12.8 19.4 6.1 4.4 62.3-- 1.7---- 0.0------------
2019-05-29 15.6 20.9 12.6 12.2 83.5-- 3.0---- 0.3------------
2019-05-28 18.9 24.7 13.5 9.8 75.0-- 3.7---- 1.4------------
2019-05-27 18.1 24.8 8.9 5.4 58.8-- 4.0---- 1.7------------
2019-05-26 13.9 19.1 6.9 3.4 68.0-- 2.3---- 0.0------------
2019-05-25 16.5 21.9 8.1 5.9 67.0-- 1.7---- 0.0------------
2019-05-24 15.6 20.3 11.9 11.8 89.5-- 1.7---- 0.0------------
2019-05-23 17.7 24.1 8.4 6.4 70.5-- 3.0---- 0.0------------
2019-05-22 15.6 20.3 10.8 9.1 79.5-- 2.3---- 0.0------------
2019-05-21 17.4 22.0 14.0 12.9 81.5-- 5.0---- 0.8------------
2019-05-20 20.4 26.2 15.5 12.7 64.3-- 3.7---- 11.2------------
2019-05-19 17.8 21.7 13.1 12.7 71.3-- 3.3---- 0.0------------
2019-05-18 17.7 23.3 11.9 8.8 79.5-- 3.0---- 4.0------------
2019-05-17 16.7 20.0 14.5 14.2 88.5-- 2.3---- 1.2------------
2019-05-16 15.3 18.6 13.2 11.5 87.3-- 2.7---- 6.0------------
2019-05-15 11.8 15.0 9.0 9.0 90.3-- 2.3---- 15.7------------
2019-05-14 8.9 11.4 6.4 4.4 85.5-- 2.3---- 4.0------------
2019-05-13 10.7 16.5 5.4 2.4 79.0-- 3.0---- 1.3------------
2019-05-12 13.4 21.0 4.9 3.4 76.3-- 2.3---- 0.0------------
2019-05-11 12.5 18.9 8.7 7.8 82.0-- 1.7---- 1.8------------
2019-05-10 10.3 15.6 1.8 -2.0 76.0-- 1.0---- 0.0------------
2019-05-09 9.1 17.1 -1.4 -4.6 49.0-- 3.0---- 0.0------------
2019-05-08 7.2 14.7 -3.1 -6.3 43.0-- 2.7---- 0.0------------
2019-05-07 9.3 13.7 5.4 4.2 47.5-- 4.0---- 0.0------------
2019-05-06 7.8 12.2 4.2 3.1 60.0-- 2.7---- 0.4------------
2019-05-05 7.4 13.0 0.2 -2.3 72.5-- 2.7---- 0.0------------
2019-05-04 8.1 13.0 1.5 0.1 54.0-- 2.3---- 0.0------------
2019-05-03 7.7 12.0 4.1 0.9 73.5-- 2.3---- 0.0------------
2019-05-02 8.3 12.7 2.3 0.5 74.8-- 4.3---- 0.5------------
2019-05-01 9.6 16.7 0.3 -1.5 68.5-- 1.3---- 0.0------------
2019-04-30 11.5 18.3 3.5 0.7 55.0-- 2.7---- 0.0------------
2019-04-29 14.2 18.6 9.9 6.8 74.8-- 4.0---- 0.0------------
2019-04-28 14.2 20.6 9.8 7.4 82.8-- 2.0---- 4.5------------
2019-04-27 16.8 25.8 9.6 5.5 75.5-- 3.3---- 5.5------------
2019-04-26 18.6 25.6 10.4 5.4 49.8-- 3.0---- 0.0------------
2019-04-25 16.6 23.7 10.6 4.9 49.0-- 3.0---- 0.0------------
2019-04-24 13.1 19.2 6.4 1.2 37.8-- 3.7---- 0.0------------
2019-04-23 10.7 19.3 -0.5 -4.4 33.3-- 4.0---- 0.0------------
2019-04-22 10.9 17.6 4.1 1.2 55.3-- 3.7---- 0.0------------
2019-04-21 8.6 12.7 6.7 4.5 78.3-- 2.3---- 0.2------------
232.5 ms

 

Źródłem pochodzenia danych jest Instytut Meteorologii i Gospodarki Wodnej – Państwowy Instytut Badawczy. Dane Instytutu Meteorologii i Gospodarki Wodnej – Państwowego Instytutu Badawczego zostały przetworzone.

Dane źródłowe można odnaleźć na stronie https://dane.imgw.pl